Carlsbad, New Mexico
Current Conditions -  °F | °C
As of 3:53 AM on Wednesday 26 Nov 2014 (Local Time) from KCNM Reporting Station
Clear Clear  
Wind Chill: 38°   Ceiling: Unl
Heat Index: 38°   Visibility: 10mi
Dew Point: 15°   Wind: 3mph
Humidity: 39%   Direction: 20°NNE
Pressure: 30.16"   Gusts: NA
Location:  32.42°N, 104.22°W
Report Text: KCNM 261053Z AUTO 02003KT 10SM CLR 03/M09 A3016 RMK AO2 SLP194 T00331094
Loading
Personal Weather Stations






























Interactive Weather Map New forecast layout! Learn more

10-Day Weather Forecast

Advertisements
Track Severe Weather on mobile